Time;durP1;ratioP1;P1;durP2;ratioP2;P2;SDS_P1;SDS_P2;PMS_P1;PMS_P2;Temp;Humidity;BMP_temperature;BMP_pressure;BME280_temperature;BME280_humidity;BME280_pressure;Samples;Min_cycle;Max_cycle;Signal;HPM_P1;HPM_P2
2023/05/01 00:02:21;;;;;;;13.25;6.00;;;10.90;99.90;;;;;;5066193;28;20032;-60
2023/05/01 00:04:46;;;;;;;7.82;4.80;;;11.00;99.90;;;;;;5070421;28;20028;-57
2023/05/01 00:07:12;;;;;;;6.35;4.43;;;11.10;99.90;;;;;;5066021;28;20372;-62
2023/05/01 00:09:37;;;;;;;15.43;6.25;;;11.10;99.90;;;;;;5066874;28;20077;-59
2023/05/01 00:12:03;;;;;;;15.38;6.18;;;11.10;99.90;;;;;;5068857;28;20495;-63
2023/05/01 00:14:29;;;;;;;9.43;5.53;;;11.00;99.90;;;;;;5068315;28;20028;-66
2023/05/01 00:16:55;;;;;;;14.60;6.82;;;11.00;99.90;;;;;;5072994;28;20438;-61
2023/05/01 00:19:20;;;;;;;14.32;5.43;;;11.10;99.90;;;;;;5070388;28;20016;-59
2023/05/01 00:21:47;;;;;;;8.05;5.10;;;11.00;99.90;;;;;;5066018;28;20040;-61
2023/05/01 00:24:13;;;;;;;8.68;5.03;;;11.00;99.90;;;;;;5072950;28;20039;-60
2023/05/01 00:26:38;;;;;;;6.82;4.55;;;11.00;99.90;;;;;;5072745;28;20082;-59
2023/05/01 00:29:04;;;;;;;9.93;4.78;;;11.00;99.90;;;;;;5071244;28;20425;-61
2023/05/01 00:31:29;;;;;;;13.10;3.92;;;11.00;99.90;;;;;;5072147;28;20028;-55
2023/05/01 00:33:55;;;;;;;10.57;3.72;;;11.00;99.90;;;;;;5073155;28;20031;-61
2023/05/01 00:36:21;;;;;;;7.38;3.67;;;11.10;99.90;;;;;;5072067;28;20051;-59
2023/05/01 00:38:46;;;;;;;16.42;3.85;;;11.10;99.90;;;;;;5071283;28;20038;-60
2023/05/01 00:41:12;;;;;;;5.65;2.90;;;11.20;99.90;;;;;;5061018;28;20037;-61
2023/05/01 00:43:37;;;;;;;4.78;3.10;;;11.20;99.90;;;;;;5066733;28;20112;-60
2023/05/01 00:46:03;;;;;;;4.97;3.08;;;11.30;99.90;;;;;;5069264;28;20075;-61
2023/05/01 00:48:29;;;;;;;5.55;3.28;;;11.40;99.90;;;;;;5066762;28;20029;-61
2023/05/01 00:50:55;;;;;;;10.70;3.38;;;11.40;99.90;;;;;;5065806;28;20029;-61
2023/05/01 00:53:23;;;;;;;6.82;3.38;;;11.40;99.90;;;;;;5065714;28;20024;-58
2023/05/01 00:55:49;;;;;;;7.32;3.03;;;11.40;99.90;;;;;;5065917;28;20082;-61
2023/05/01 00:58:17;;;;;;;4.20;2.90;;;11.40;99.90;;;;;;5068618;28;20038;-62
2023/05/01 01:00:43;;;;;;;8.35;3.88;;;11.40;99.90;;;;;;5065622;28;20050;-62
2023/05/01 01:03:10;;;;;;;13.63;3.55;;;11.50;99.90;;;;;;5069369;28;20025;-62
2023/05/01 01:05:41;;;;;;;10.32;3.38;;;11.60;99.90;;;;;;5069375;28;20021;-61
2023/05/01 01:08:21;;;;;;;7.32;2.63;;;11.60;99.90;;;;;;5066330;28;20129;-62
2023/05/01 01:11:04;;;;;;;4.53;2.80;;;11.60;99.90;;;;;;5068950;28;20017;-61
2023/05/01 01:13:33;;;;;;;5.50;2.92;;;11.70;99.90;;;;;;5064122;28;20440;-63
2023/05/01 01:16:14;;;;;;;5.97;3.25;;;11.70;99.90;;;;;;5060038;28;20086;-63
2023/05/01 01:18:46;;;;;;;8.65;4.38;;;11.60;99.90;;;;;;5065967;28;20101;-60
2023/05/01 01:21:21;;;;;;;4.45;2.70;;;11.50;99.90;;;;;;5068193;28;20028;-59
2023/05/01 01:24:05;;;;;;;;;;;11.40;99.90;;;;;;5070337;28;20471;-59
2023/05/01 01:27:06;;;;;;;6.90;3.03;;;11.40;99.90;;;;;;5064956;28;19916;-64
2023/05/01 01:29:35;;;;;;;5.22;3.30;;;11.40;99.90;;;;;;5068886;28;20029;-62
2023/05/01 01:32:30;;;;;;;5.32;3.35;;;11.40;99.90;;;;;;5066911;28;20598;-59
2023/05/01 01:35:02;;;;;;;6.03;3.50;;;11.40;99.90;;;;;;5057390;28;20078;-66
2023/05/01 01:37:48;;;;;;;6.70;3.28;;;11.30;99.90;;;;;;5071497;28;20036;-60
2023/05/01 01:40:21;;;;;;;17.85;3.60;;;11.30;99.90;;;;;;5071615;28;20572;-64
2023/05/01 01:42:53;;;;;;;13.60;4.00;;;11.30;99.90;;;;;;5059171;28;20492;-61
2023/05/01 01:45:22;;;;;;;5.75;3.53;;;11.30;99.90;;;;;;5066916;28;20115;-58
2023/05/01 01:47:50;;;;;;;5.57;2.78;;;11.30;99.90;;;;;;5064551;28;20090;-62
2023/05/01 01:50:19;;;;;;;8.75;2.88;;;11.30;99.90;;;;;;5066853;28;20046;-64
2023/05/01 01:52:48;;;;;;;6.57;3.60;;;11.30;99.90;;;;;;5066492;28;20016;-62
2023/05/01 01:55:16;;;;;;;9.93;3.47;;;11.30;99.90;;;;;;5069678;28;20036;-60
2023/05/01 01:57:44;;;;;;;12.90;3.33;;;11.20;99.90;;;;;;5069427;28;20099;-61
2023/05/01 02:00:12;;;;;;;7.53;3.50;;;11.20;99.90;;;;;;5063232;28;20553;-64
2023/05/01 02:02:39;;;;;;;7.07;3.60;;;11.20;99.90;;;;;;5066634;28;20028;-59
2023/05/01 02:05:06;;;;;;;7.68;3.55;;;11.20;99.90;;;;;;5065839;28;20487;-64
2023/05/01 02:07:34;;;;;;;7.63;2.78;;;11.20;99.90;;;;;;5070029;28;20107;-59
2023/05/01 02:10:02;;;;;;;6.10;3.67;;;11.30;99.90;;;;;;5070516;28;20112;-62
2023/05/01 02:12:29;;;;;;;5.57;3.55;;;11.30;99.90;;;;;;5066035;28;20093;-64
2023/05/01 02:14:56;;;;;;;5.95;3.20;;;11.30;99.90;;;;;;5072743;28;20023;-58
2023/05/01 02:17:22;;;;;;;6.30;3.40;;;11.30;99.90;;;;;;5062505;28;20468;-62
2023/05/01 02:19:51;;;;;;;4.65;3.13;;;11.30;99.90;;;;;;5075599;28;20086;-61
2023/05/01 02:22:19;;;;;;;7.68;3.22;;;11.30;99.90;;;;;;5069129;28;20492;-61
2023/05/01 02:24:46;;;;;;;8.75;3.17;;;11.30;99.90;;;;;;5064758;28;20032;-62
2023/05/01 02:27:18;;;;;;;5.45;3.70;;;11.30;99.90;;;;;;5062550;28;20029;-59
2023/05/01 02:29:43;;;;;;;7.82;3.30;;;11.30;99.90;;;;;;5057765;28;20032;-63
2023/05/01 02:32:09;;;;;;;9.30;3.55;;;11.30;99.90;;;;;;5061416;28;20028;-62
2023/05/01 02:34:34;;;;;;;8.55;3.20;;;11.30;99.90;;;;;;5065195;28;20103;-63
2023/05/01 02:37:01;;;;;;;4.47;2.97;;;11.30;99.90;;;;;;5076011;28;20024;-61
2023/05/01 02:39:27;;;;;;;12.02;3.53;;;11.30;99.90;;;;;;5073997;28;20040;-62
2023/05/01 02:41:57;;;;;;;4.72;2.85;;;11.30;99.90;;;;;;5070841;28;20037;-61
2023/05/01 02:44:25;;;;;;;3.80;2.95;;;11.30;99.90;;;;;;5067195;28;20036;-63
2023/05/01 02:46:52;;;;;;;8.27;2.83;;;11.30;99.90;;;;;;5061149;28;20044;-61
2023/05/01 02:49:20;;;;;;;6.28;2.80;;;11.30;99.90;;;;;;5064110;28;20017;-64
2023/05/01 02:51:46;;;;;;;7.72;3.00;;;11.30;99.90;;;;;;5063436;28;20478;-62
2023/05/01 02:54:12;;;;;;;6.93;3.30;;;11.20;99.90;;;;;;5070017;28;20031;-62
2023/05/01 02:56:38;;;;;;;4.68;2.95;;;11.20;99.90;;;;;;5068572;28;20102;-65
2023/05/01 02:59:03;;;;;;;5.05;3.30;;;11.20;99.90;;;;;;5065727;28;20089;-58
2023/05/01 03:01:29;;;;;;;9.40;3.50;;;11.10;99.90;;;;;;5067869;28;20020;-60
2023/05/01 03:03:55;;;;;;;8.95;3.38;;;11.10;99.90;;;;;;5073669;28;20021;-67
2023/05/01 03:06:20;;;;;;;10.75;3.47;;;11.10;99.90;;;;;;5073114;28;20055;-58
2023/05/01 03:08:46;;;;;;;5.72;3.33;;;11.00;99.90;;;;;;5069235;28;20056;-64
2023/05/01 03:11:12;;;;;;;7.13;3.40;;;11.00;99.90;;;;;;5071572;28;20032;-59
2023/05/01 03:13:37;;;;;;;6.10;3.55;;;11.00;99.90;;;;;;5068490;28;20020;-60
2023/05/01 03:16:03;;;;;;;5.68;2.85;;;11.00;99.90;;;;;;5068740;28;20036;-65
2023/05/01 03:18:29;;;;;;;5.75;3.00;;;11.00;99.90;;;;;;5070431;28;20020;-62
2023/05/01 03:20:55;;;;;;;6.20;3.15;;;11.00;99.90;;;;;;5068683;28;20107;-61
2023/05/01 03:23:22;;;;;;;8.25;3.40;;;11.00;99.90;;;;;;5065921;28;20107;-59
2023/05/01 03:25:48;;;;;;;4.60;3.53;;;10.90;99.90;;;;;;5070553;28;20979;-60
2023/05/01 03:28:14;;;;;;;8.02;3.03;;;10.90;99.90;;;;;;5070940;28;20560;-61
2023/05/01 03:30:39;;;;;;;4.57;2.88;;;10.90;99.90;;;;;;5065177;28;20047;-60
2023/05/01 03:33:05;;;;;;;7.53;3.22;;;10.80;99.90;;;;;;5067328;28;20494;-56
2023/05/01 03:35:31;;;;;;;4.88;3.40;;;10.80;99.90;;;;;;5065190;28;20066;-66
2023/05/01 03:37:56;;;;;;;7.00;3.72;;;10.80;99.90;;;;;;5073677;28;20025;-62
2023/05/01 03:40:22;;;;;;;11.75;3.67;;;10.70;99.90;;;;;;5071685;28;20491;-62
2023/05/01 03:42:47;;;;;;;7.95;3.28;;;10.70;99.90;;;;;;5067397;28;20115;-61
2023/05/01 03:45:13;;;;;;;4.90;3.63;;;10.60;99.90;;;;;;5067432;28;20035;-58
2023/05/01 03:47:39;;;;;;;8.57;3.83;;;10.60;99.90;;;;;;5060638;28;20082;-62
2023/05/01 03:50:05;;;;;;;11.90;3.85;;;10.60;99.90;;;;;;5073837;28;20028;-57
2023/05/01 03:52:30;;;;;;;9.70;3.58;;;10.50;99.90;;;;;;5072126;28;20016;-61
2023/05/01 03:54:56;;;;;;;4.80;3.30;;;10.50;99.90;;;;;;5071603;28;20395;-57
2023/05/01 03:57:22;;;;;;;7.68;3.60;;;10.40;99.90;;;;;;5076330;28;20748;-64
2023/05/01 03:59:48;;;;;;;6.40;4.30;;;10.40;99.90;;;;;;5070519;28;20060;-61
2023/05/01 04:02:13;;;;;;;6.60;3.83;;;10.40;99.90;;;;;;5075502;28;20059;-62
2023/05/01 04:04:39;;;;;;;6.03;3.55;;;10.40;99.90;;;;;;5065335;28;20044;-60
2023/05/01 04:07:04;;;;;;;4.82;3.53;;;10.30;99.90;;;;;;5073043;28;20112;-59
2023/05/01 04:09:30;;;;;;;13.07;3.47;;;10.20;99.90;;;;;;5071126;28;20082;-63
2023/05/01 04:11:56;;;;;;;7.82;3.97;;;10.20;99.90;;;;;;5074475;28;20036;-62
2023/05/01 04:14:21;;;;;;;8.45;4.07;;;10.20;99.90;;;;;;5069384;28;20032;-61
2023/05/01 04:16:47;;;;;;;11.20;4.22;;;10.20;99.90;;;;;;5064934;28;20586;-60
2023/05/01 04:19:12;;;;;;;5.60;3.80;;;10.30;99.90;;;;;;5071918;28;20032;-61
2023/05/01 04:21:38;;;;;;;6.25;2.88;;;10.30;99.90;;;;;;5073704;28;20107;-59
2023/05/01 04:24:04;;;;;;;6.15;3.75;;;10.30;99.90;;;;;;5073477;28;20031;-58
2023/05/01 04:26:29;;;;;;;9.27;3.47;;;10.40;99.90;;;;;;5075036;28;20031;-56
2023/05/01 04:28:55;;;;;;;7.32;3.85;;;10.40;99.90;;;;;;5072253;28;20032;-60
2023/05/01 04:31:20;;;;;;;5.57;3.83;;;10.40;99.90;;;;;;5069005;28;20178;-59
2023/05/01 04:33:46;;;;;;;8.20;3.40;;;10.50;99.90;;;;;;5075603;28;20039;-60
2023/05/01 04:36:12;;;;;;;8.75;3.67;;;10.50;99.90;;;;;;5072118;28;20021;-62
2023/05/01 04:38:37;;;;;;;5.53;3.60;;;10.50;99.90;;;;;;5072489;28;20431;-60
2023/05/01 04:41:05;;;;;;;9.88;4.05;;;10.50;99.90;;;;;;5067154;28;20711;-61
2023/05/01 04:43:30;;;;;;;6.55;3.63;;;10.60;99.90;;;;;;5068790;28;20499;-60
2023/05/01 04:45:55;;;;;;;5.93;4.28;;;10.60;99.90;;;;;;5070296;28;20056;-60
2023/05/01 04:48:21;;;;;;;5.15;3.53;;;10.60;99.90;;;;;;5076997;28;20110;-60
2023/05/01 04:50:46;;;;;;;7.22;3.80;;;10.60;99.90;;;;;;5072111;28;20024;-60
2023/05/01 04:53:12;;;;;;;11.73;3.95;;;10.60;99.90;;;;;;5076697;28;20390;-61
2023/05/01 04:55:37;;;;;;;9.27;3.92;;;10.70;99.90;;;;;;5076250;28;20043;-62
2023/05/01 04:58:04;;;;;;;4.88;3.20;;;10.60;99.90;;;;;;5073647;28;20104;-61
2023/05/01 05:00:30;;;;;;;8.48;3.90;;;10.70;99.90;;;;;;5069988;28;20031;-56
2023/05/01 05:02:55;;;;;;;6.05;3.40;;;10.70;99.90;;;;;;5070747;28;20025;-61
2023/05/01 05:05:21;;;;;;;7.38;4.53;;;10.70;99.90;;;;;;5070418;28;20495;-55
2023/05/01 05:07:47;;;;;;;11.40;4.40;;;10.80;99.90;;;;;;5074257;28;20060;-57
2023/05/01 05:10:13;;;;;;;5.90;3.50;;;10.80;99.90;;;;;;5075128;28;20073;-57
2023/05/01 05:12:38;;;;;;;5.30;3.47;;;10.90;99.90;;;;;;5076237;28;20036;-60
2023/05/01 05:15:04;;;;;;;6.82;3.92;;;10.90;99.90;;;;;;5071959;28;20490;-63
2023/05/01 05:17:30;;;;;;;7.80;3.83;;;10.90;99.90;;;;;;5075725;28;21616;-64
2023/05/01 05:19:55;;;;;;;9.48;3.80;;;11.00;99.90;;;;;;5071076;28;20024;-61
2023/05/01 05:22:21;;;;;;;10.00;3.50;;;11.00;99.90;;;;;;5071545;28;20020;-60
2023/05/01 05:24:52;;;;;;;8.20;3.67;;;11.10;99.90;;;;;;5069924;28;20083;-61
2023/05/01 05:27:18;;;;;;;7.35;3.92;;;11.10;99.90;;;;;;5072513;28;20033;-63
2023/05/01 05:29:43;;;;;;;6.78;3.72;;;11.20;99.90;;;;;;5067391;28;20461;-60
2023/05/01 05:32:09;;;;;;;8.38;3.35;;;11.30;99.90;;;;;;5068729;28;20056;-62
2023/05/01 05:34:34;;;;;;;5.75;3.28;;;11.30;99.90;;;;;;5066081;28;20093;-58
2023/05/01 05:37:00;;;;;;;4.97;3.47;;;11.30;99.90;;;;;;5068942;28;20048;-58
2023/05/01 05:39:26;;;;;;;7.75;3.97;;;11.40;99.90;;;;;;5068777;28;20021;-62
2023/05/01 05:41:52;;;;;;;5.78;3.50;;;11.40;99.90;;;;;;5066740;28;20029;-61
2023/05/01 05:44:18;;;;;;;5.30;3.45;;;11.50;99.90;;;;;;5069616;28;20029;-59
2023/05/01 05:46:44;;;;;;;4.20;3.33;;;11.60;99.90;;;;;;5066839;28;20020;-61
2023/05/01 05:49:09;;;;;;;8.30;4.15;;;11.60;99.90;;;;;;5067766;28;20711;-58
2023/05/01 05:51:35;;;;;;;5.90;3.38;;;11.60;99.90;;;;;;5068434;28;20074;-59
2023/05/01 05:54:00;;;;;;;5.47;3.60;;;11.70;99.90;;;;;;5065513;28;20037;-59
2023/05/01 05:56:26;;;;;;;7.97;3.38;;;11.70;99.90;;;;;;5068468;28;20099;-61
2023/05/01 05:58:51;;;;;;;7.90;3.83;;;11.80;99.90;;;;;;5070326;28;20031;-57
2023/05/01 06:01:17;;;;;;;9.27;3.15;;;11.90;99.90;;;;;;5068084;28;20052;-60
2023/05/01 06:03:42;;;;;;;7.53;3.40;;;12.00;99.90;;;;;;5069185;28;20039;-61
2023/05/01 06:06:08;;;;;;;10.73;4.18;;;12.00;99.90;;;;;;5069353;28;20041;-59
2023/05/01 06:08:36;;;;;;;5.53;3.53;;;12.10;99.90;;;;;;5064634;28;20046;-59
2023/05/01 06:11:01;;;;;;;6.55;3.92;;;12.20;99.90;;;;;;5066062;28;20028;-57
2023/05/01 06:13:27;;;;;;;7.18;3.63;;;12.20;99.90;;;;;;5066942;28;20033;-59
2023/05/01 06:15:52;;;;;;;7.22;3.38;;;12.30;99.90;;;;;;5066591;28;20036;-60
2023/05/01 06:18:18;;;;;;;14.60;4.25;;;12.40;99.90;;;;;;5063760;28;20032;-60
2023/05/01 06:20:44;;;;;;;5.85;3.10;;;12.50;99.90;;;;;;5068899;28;20032;-61
2023/05/01 06:23:12;;;;;;;9.70;3.65;;;12.50;99.90;;;;;;5069314;28;20072;-65
2023/05/01 06:25:38;;;;;;;7.28;3.53;;;12.60;99.90;;;;;;5067753;28;20039;-58
2023/05/01 06:28:03;;;;;;;9.52;3.70;;;12.70;99.90;;;;;;5066866;28;20024;-57
2023/05/01 06:30:29;;;;;;;9.27;3.20;;;12.70;99.90;;;;;;5071440;28;20099;-59
2023/05/01 06:32:55;;;;;;;4.35;3.30;;;12.80;99.90;;;;;;5075720;28;20118;-56
2023/05/01 06:35:20;;;;;;;4.05;3.13;;;12.80;99.90;;;;;;5074538;28;20020;-61
2023/05/01 06:37:46;;;;;;;5.97;3.30;;;12.80;99.90;;;;;;5068425;28;20097;-60
2023/05/01 06:40:11;;;;;;;8.10;3.55;;;12.90;99.90;;;;;;5074831;28;20032;-58
2023/05/01 06:42:38;;;;;;;6.60;3.78;;;12.90;99.90;;;;;;5068652;28;20059;-61
2023/05/01 06:45:07;;;;;;;6.60;3.60;;;12.90;99.90;;;;;;5068663;28;20020;-60
2023/05/01 06:47:32;;;;;;;4.85;3.30;;;13.00;99.90;;;;;;5062979;28;20032;-61
2023/05/01 06:49:58;;;;;;;6.38;3.10;;;13.10;99.90;;;;;;5067382;28;20021;-61
2023/05/01 06:52:24;;;;;;;5.13;3.40;;;13.10;99.90;;;;;;5070693;28;22274;-62
2023/05/01 06:54:50;;;;;;;5.68;3.20;;;13.10;99.90;;;;;;5073865;28;20029;-62
2023/05/01 06:57:15;;;;;;;4.80;2.78;;;13.20;99.90;;;;;;5073712;28;20028;-59
2023/05/01 06:59:41;;;;;;;4.35;3.13;;;13.30;99.90;;;;;;5071373;28;20033;-57
2023/05/01 07:02:06;;;;;;;8.93;3.15;;;13.30;99.90;;;;;;5069148;28;20094;-61
2023/05/01 07:04:32;;;;;;;6.85;3.38;;;13.40;99.90;;;;;;5074397;28;20110;-62
2023/05/01 07:06:58;;;;;;;7.00;2.80;;;13.50;99.90;;;;;;5072549;28;20450;-61
2023/05/01 07:09:23;;;;;;;5.30;3.10;;;13.60;99.90;;;;;;5069181;28;20446;-59
2023/05/01 07:11:49;;;;;;;8.35;2.90;;;13.60;99.90;;;;;;5065484;28;20024;-62
2023/05/01 07:14:15;;;;;;;8.65;3.15;;;13.60;99.90;;;;;;5061405;28;20483;-63
2023/05/01 07:16:41;;;;;;;7.03;2.78;;;13.70;99.90;;;;;;5060693;28;20017;-62
2023/05/01 07:19:06;;;;;;;3.95;2.30;;;13.70;99.90;;;;;;5063731;28;20021;-60
2023/05/01 07:21:32;;;;;;;6.32;2.80;;;13.90;99.90;;;;;;5065047;28;20080;-62
2023/05/01 07:23:58;;;;;;;5.97;2.75;;;14.00;99.90;;;;;;5067739;28;20478;-61
2023/05/01 07:26:27;;;;;;;3.53;2.38;;;14.10;99.90;;;;;;5063144;28;20043;-61
2023/05/01 07:28:52;;;;;;;7.72;2.47;;;14.10;99.90;;;;;;5062680;28;20042;-62
2023/05/01 07:31:18;;;;;;;6.70;3.13;;;14.10;99.90;;;;;;5061717;28;20024;-62
2023/05/01 07:33:44;;;;;;;8.65;2.85;;;14.20;99.90;;;;;;5063859;28;20075;-64
2023/05/01 07:36:10;;;;;;;8.88;3.42;;;14.40;99.90;;;;;;5065703;28;20047;-60
2023/05/01 07:38:35;;;;;;;6.07;2.60;;;14.40;99.90;;;;;;5064909;28;20037;-60
2023/05/01 07:41:01;;;;;;;3.72;2.35;;;14.50;99.90;;;;;;5065412;28;20602;-60
2023/05/01 07:43:26;;;;;;;4.78;2.70;;;14.50;99.90;;;;;;5066010;28;20028;-62
2023/05/01 07:45:59;;;;;;;5.35;2.80;;;14.60;99.90;;;;;;5065816;28;20033;-60
2023/05/01 07:48:26;;;;;;;10.70;2.78;;;14.70;99.90;;;;;;5063181;28;20032;-61
2023/05/01 07:50:53;;;;;;;5.60;2.13;;;14.80;99.90;;;;;;5069612;28;20396;-59
2023/05/01 07:53:19;;;;;;;4.70;2.40;;;14.90;99.90;;;;;;5062679;28;20043;-59
2023/05/01 07:55:44;;;;;;;5.55;2.65;;;14.90;99.90;;;;;;5063551;28;20024;-60
2023/05/01 07:58:10;;;;;;;6.18;2.72;;;14.90;99.90;;;;;;5063561;28;20044;-60
2023/05/01 08:00:36;;;;;;;5.57;2.55;;;15.00;99.90;;;;;;5064923;28;20115;-64
2023/05/01 08:03:02;;;;;;;9.13;4.05;;;15.10;99.90;;;;;;5067213;28;20025;-66
2023/05/01 08:05:28;;;;;;;5.97;2.40;;;15.10;99.90;;;;;;5062337;28;20040;-62
2023/05/01 08:07:53;;;;;;;7.45;2.42;;;15.30;99.90;;;;;;5065870;28;20028;-63
2023/05/01 08:10:19;;;;;;;7.60;3.00;;;15.30;99.90;;;;;;5061892;28;20028;-58
2023/05/01 08:12:45;;;;;;;6.80;2.45;;;15.30;99.90;;;;;;5064931;28;20040;-60
2023/05/01 08:15:10;;;;;;;4.43;2.03;;;15.30;99.90;;;;;;5063781;28;20388;-60
2023/05/01 08:17:36;;;;;;;6.07;3.53;;;15.40;99.90;;;;;;5066900;28;20089;-58
2023/05/01 08:20:02;;;;;;;6.00;2.80;;;15.40;99.90;;;;;;5066058;28;20035;-61
2023/05/01 08:22:28;;;;;;;6.32;2.55;;;15.50;99.90;;;;;;5066305;28;20028;-59
2023/05/01 08:24:54;;;;;;;6.45;2.80;;;15.50;99.90;;;;;;5066865;28;20039;-58
2023/05/01 08:27:20;;;;;;;4.55;2.35;;;15.50;99.90;;;;;;5067318;28;20487;-61
2023/05/01 08:29:45;;;;;;;5.97;2.63;;;15.50;99.90;;;;;;5066999;28;20031;-61
2023/05/01 08:32:11;;;;;;;7.00;2.78;;;15.60;99.90;;;;;;5062793;28;20129;-66
2023/05/01 08:34:36;;;;;;;9.77;2.90;;;15.70;99.90;;;;;;5060214;28;20041;-62
2023/05/01 08:37:02;;;;;;;4.93;2.70;;;15.90;99.90;;;;;;5070343;28;20020;-59
2023/05/01 08:39:27;;;;;;;4.28;2.35;;;16.10;99.90;;;;;;5071407;28;20086;-61
2023/05/01 08:41:54;;;;;;;7.25;2.67;;;16.10;99.90;;;;;;5071020;28;20025;-59
2023/05/01 08:44:20;;;;;;;6.85;2.25;;;16.10;99.90;;;;;;5065983;28;20021;-67
2023/05/01 08:46:53;;;;;;;3.90;2.25;;;16.10;99.90;;;;;;5068571;28;20029;-62
2023/05/01 08:49:21;;;;;;;7.10;3.10;;;16.20;99.90;;;;;;5065570;28;20029;-59
2023/05/01 08:51:51;;;;;;;10.65;2.33;;;16.00;99.90;;;;;;5071734;28;20785;-61
2023/05/01 08:54:19;;;;;;;5.90;2.58;;;16.20;99.90;;;;;;5067145;28;20403;-60
2023/05/01 08:56:46;;;;;;;7.03;3.42;;;16.30;99.90;;;;;;5070445;28;20025;-60
2023/05/01 08:59:13;;;;;;;8.98;2.78;;;16.20;99.90;;;;;;5073482;28;20035;-59
2023/05/01 09:01:41;;;;;;;8.57;2.47;;;16.20;99.90;;;;;;5066528;28;20032;-58
2023/05/01 09:04:08;;;;;;;4.47;2.42;;;16.20;99.90;;;;;;5066539;28;20017;-59
2023/05/01 09:06:34;;;;;;;6.57;3.10;;;16.40;99.90;;;;;;5067336;28;20032;-62
2023/05/01 09:09:00;;;;;;;8.65;2.70;;;16.50;99.90;;;;;;5070547;28;20503;-58
2023/05/01 09:11:26;;;;;;;4.28;2.58;;;16.70;99.90;;;;;;5069798;28;20035;-55
2023/05/01 09:13:52;;;;;;;8.43;2.70;;;16.70;99.90;;;;;;5069120;28;20035;-57
2023/05/01 09:16:19;;;;;;;6.63;3.25;;;16.80;99.90;;;;;;5068257;28;20025;-61
2023/05/01 09:18:45;;;;;;;7.05;2.55;;;16.80;99.90;;;;;;5069404;28;20628;-57
2023/05/01 09:21:11;;;;;;;7.28;2.97;;;16.90;99.90;;;;;;5064973;28;20407;-60
2023/05/01 09:23:36;;;;;;;4.50;2.33;;;16.90;99.90;;;;;;5070093;28;20040;-59
2023/05/01 09:26:06;;;;;;;6.82;2.80;;;16.90;99.90;;;;;;5066447;28;20029;-59
2023/05/01 09:28:46;;;;;;;5.53;3.20;;;17.00;99.90;;;;;;5068067;28;20027;-61
2023/05/01 09:31:21;;;;;;;7.80;2.20;;;17.20;99.90;;;;;;5066431;28;20044;-59
2023/05/01 09:33:53;;;;;;;5.60;3.08;;;16.90;99.90;;;;;;5067832;28;20016;-60
2023/05/01 09:36:18;;;;;;;4.68;2.60;;;17.10;99.90;;;;;;5066344;28;20012;-60
2023/05/01 09:38:44;;;;;;;4.93;3.30;;;17.00;99.90;;;;;;5065667;28;20044;-58
2023/05/01 09:41:10;;;;;;;6.55;3.08;;;17.20;99.90;;;;;;5061996;28;20024;-60
2023/05/01 09:43:36;;;;;;;5.75;3.25;;;17.30;99.90;;;;;;5062449;28;20076;-59
2023/05/01 09:46:05;;;;;;;8.65;2.85;;;17.40;99.90;;;;;;5060406;28;20430;-59
2023/05/01 09:48:31;;;;;;;4.80;2.90;;;17.30;99.90;;;;;;5067444;28;20020;-59
2023/05/01 09:50:57;;;;;;;6.78;2.90;;;17.30;99.90;;;;;;5065659;28;20381;-61
2023/05/01 09:53:38;;;;;;;7.78;3.38;;;17.50;99.90;;;;;;5063813;28;20032;-58
2023/05/01 09:56:04;;;;;;;6.57;3.00;;;17.60;99.90;;;;;;5068004;28;20078;-60
2023/05/01 09:58:30;;;;;;;4.75;2.90;;;17.80;99.90;;;;;;5065461;28;20108;-60
2023/05/01 10:00:55;;;;;;;4.35;2.70;;;18.00;99.90;;;;;;5064551;28;20427;-58
2023/05/01 10:03:21;;;;;;;5.57;3.13;;;18.10;99.90;;;;;;5065071;28;20033;-60
2023/05/01 10:05:47;;;;;;;6.40;2.92;;;18.40;99.90;;;;;;5063297;28;20021;-60
2023/05/01 10:08:13;;;;;;;3.55;2.45;;;18.70;99.90;;;;;;5065446;28;20498;-59
2023/05/01 10:10:42;;;;;;;6.03;2.72;;;18.70;99.90;;;;;;5067107;28;20031;-59
2023/05/01 10:13:17;;;;;;;3.97;2.63;;;19.10;99.90;;;;;;5068905;28;20107;-59
2023/05/01 10:15:45;;;;;;;6.60;3.15;;;19.00;99.90;;;;;;5064775;28;20028;-56
2023/05/01 10:18:12;;;;;;;4.60;2.65;;;18.70;99.90;;;;;;5070046;28;20086;-61
2023/05/01 10:20:38;;;;;;;5.78;2.60;;;19.10;99.90;;;;;;5067189;28;20022;-59
2023/05/01 10:23:04;;;;;;;8.32;2.50;;;19.40;99.90;;;;;;5066104;28;20036;-60
2023/05/01 10:25:31;;;;;;;5.53;2.83;;;19.60;99.90;;;;;;5068319;28;20075;-61
2023/05/01 10:27:57;;;;;;;4.90;2.78;;;19.90;99.90;;;;;;5066798;28;20028;-58
2023/05/01 10:30:27;;;;;;;6.65;2.88;;;19.80;99.90;;;;;;5062889;28;20020;-63
2023/05/01 10:32:53;;;;;;;8.50;2.63;;;19.80;99.90;;;;;;5066167;28;20047;-58
2023/05/01 10:35:25;;;;;;;6.28;2.30;;;19.50;99.90;;;;;;5067275;28;20480;-59
2023/05/01 10:38:01;;;;;;;7.05;2.97;;;19.90;99.90;;;;;;5059245;28;20479;-56
2023/05/01 10:40:38;;;;;;;3.72;2.00;;;20.40;99.90;;;;;;5062742;28;20495;-57
2023/05/01 10:43:16;;;;;;;3.15;2.38;;;21.10;99.20;;;;;;5066386;28;20029;-57
2023/05/01 10:45:46;;;;;;;3.53;2.05;;;21.00;97.40;;;;;;5062873;28;20029;-58
2023/05/01 10:48:31;;;;;;;4.15;2.47;;;21.00;97.80;;;;;;5066895;28;20029;-58
2023/05/01 10:51:16;;;;;;;3.22;2.13;;;21.00;97.30;;;;;;5063048;28;20511;-59
2023/05/01 10:53:44;;;;;;;4.25;2.28;;;21.00;94.80;;;;;;5065934;28;20028;-57
2023/05/01 10:56:24;;;;;;;2.88;2.22;;;20.90;94.70;;;;;;5070629;28;20081;-60
2023/05/01 10:59:03;;;;;;;6.03;1.98;;;20.60;94.20;;;;;;5064949;28;20028;-56
2023/05/01 11:01:47;;;;;;;4.45;1.95;;;20.50;94.80;;;;;;5065279;28;20090;-59
2023/05/01 11:04:18;;;;;;;3.80;1.67;;;20.60;93.60;;;;;;5069003;28;20028;-57
2023/05/01 11:07:13;;;;;;;2.40;1.80;;;20.30;93.30;;;;;;5065513;28;20713;-58
2023/05/01 11:09:53;;;;;;;4.43;1.48;;;20.60;92.90;;;;;;5055337;28;20171;-59
2023/05/01 11:12:43;;;;;;;7.53;1.70;;;20.80;92.80;;;;;;5060334;28;20400;-60
2023/05/01 11:15:09;;;;;;;5.53;1.75;;;20.90;93.30;;;;;;5067208;28;20082;-61
2023/05/01 11:17:41;;;;;;;3.35;1.73;;;21.00;93.00;;;;;;5059367;28;20490;-58
2023/05/01 11:20:07;;;;;;;2.80;1.42;;;20.80;92.30;;;;;;5067142;28;20523;-59
2023/05/01 11:22:34;;;;;;;2.15;1.50;;;20.90;92.80;;;;;;5065998;28;20034;-59
2023/05/01 11:25:03;;;;;;;2.95;1.55;;;21.10;93.30;;;;;;5065742;28;20021;-59
2023/05/01 11:27:31;;;;;;;3.85;1.83;;;21.00;99.90;;;;;;5067827;28;20032;-58
2023/05/01 11:30:00;;;;;;;2.25;1.45;;;20.90;99.40;;;;;;5064321;28;20180;-59
2023/05/01 11:32:29;;;;;;;3.00;1.42;;;21.10;94.00;;;;;;5062915;28;20029;-59
2023/05/01 11:34:55;;;;;;;4.30;1.55;;;21.10;92.60;;;;;;5063504;28;20028;-58
2023/05/01 11:37:41;;;;;;;2.95;1.30;;;21.40;91.60;;;;;;5059029;28;20078;-57
2023/05/01 11:40:29;;;;;;;2.70;1.25;;;21.70;89.70;;;;;;5060281;28;20155;-61
2023/05/01 11:43:05;;;;;;;2.55;1.60;;;21.70;85.30;;;;;;5064209;28;20047;-59
2023/05/01 11:45:32;;;;;;;4.80;1.50;;;20.80;85.40;;;;;;5064343;28;20028;-57
2023/05/01 11:47:58;;;;;;;2.97;1.63;;;21.00;88.00;;;;;;5066568;28;20556;-60
2023/05/01 11:50:44;;;;;;;2.10;1.17;;;21.00;89.70;;;;;;5062097;28;20362;-57
2023/05/01 11:53:16;;;;;;;6.22;1.60;;;21.20;90.60;;;;;;5068123;28;20044;-61
2023/05/01 11:55:42;;;;;;;2.10;1.35;;;21.00;94.00;;;;;;5064926;28;20032;-60
2023/05/01 11:58:08;;;;;;;4.65;1.95;;;21.20;90.90;;;;;;5066301;28;20037;-57
2023/05/01 12:00:41;;;;;;;10.23;2.20;;;21.00;89.60;;;;;;5067326;28;20587;-54
2023/05/01 12:03:07;;;;;;;4.13;1.77;;;21.10;90.60;;;;;;5077668;28;20137;-55
2023/05/01 12:05:35;;;;;;;2.97;1.77;;;21.10;91.90;;;;;;5067172;28;20840;-61
2023/05/01 12:08:23;;;;;;;5.28;2.33;;;21.20;92.60;;;;;;5059425;28;20021;-61
2023/05/01 12:10:56;;;;;;;4.68;2.38;;;20.70;92.40;;;;;;5061737;28;20099;-58
2023/05/01 12:13:23;;;;;;;3.53;1.73;;;20.90;92.70;;;;;;5068923;28;20528;-59
2023/05/01 12:15:51;;;;;;;3.75;2.10;;;20.90;91.90;;;;;;5071882;28;20513;-52
2023/05/01 12:18:17;;;;;;;3.15;2.00;;;20.70;91.00;;;;;;5063924;28;20126;-56
2023/05/01 12:20:46;;;;;;;4.10;2.30;;;20.60;91.80;;;;;;5079852;28;20646;-58
2023/05/01 12:23:14;;;;;;;8.32;2.42;;;20.60;91.30;;;;;;5066901;28;20035;-57
2023/05/01 12:25:41;;;;;;;3.03;2.00;;;20.60;92.00;;;;;;5062939;28;20147;-57
2023/05/01 12:28:17;;;;;;;3.05;1.77;;;20.40;92.60;;;;;;5064956;28;20035;-56
2023/05/01 12:30:44;;;;;;;6.53;2.50;;;20.50;92.10;;;;;;5068801;28;20062;-55
2023/05/01 12:33:15;;;;;;;4.65;2.10;;;20.60;92.30;;;;;;5072079;28;20024;-58
2023/05/01 12:35:44;;;;;;;3.42;2.40;;;20.80;94.00;;;;;;5076073;28;20395;-56
2023/05/01 12:38:14;;;;;;;5.85;2.45;;;20.80;94.50;;;;;;5069788;28;20047;-58
2023/05/01 12:40:54;;;;;;;2.72;1.95;;;20.90;93.60;;;;;;5066830;28;20514;-55
2023/05/01 12:43:31;;;;;;;4.32;2.33;;;20.80;93.60;;;;;;5071061;28;20028;-59
2023/05/01 12:45:56;;;;;;;6.82;2.45;;;20.90;94.40;;;;;;5062292;28;20036;-56
2023/05/01 12:48:23;;;;;;;4.70;2.20;;;21.20;93.60;;;;;;5068200;28;20060;-57
2023/05/01 12:50:53;;;;;;;8.00;2.50;;;21.30;92.20;;;;;;5068417;28;20032;-55